Williston Park, New York
Current Conditions -  °F | °C
As of 11:03 AM on Monday 24 Nov 2014 (Local Time) from KJFK Reporting Station
Haze Haze  
Wind Chill: 61°   Ceiling: 2500
Heat Index: 61°   Visibility: 1mi
Dew Point: 57°   Wind: 21mph
Humidity: 88%   Direction: 180°S
Pressure: 29.68"   Gusts: 28mph
Location:  40.76°N, 73.64°W
Report Text: KJFK 241603Z 18018G24KT 1SM BR SCT002 BKN025 BKN041 16/14 A2968 RMK AO2 SFC VIS 6 VIS E-SW 2 $
Loading
Personal Weather Stations






























Interactive Weather Map New forecast layout! Learn more

10-Day Weather Forecast

Advertisements
Track Severe Weather on mobile